Time;durP1;ratioP1;P1;durP2;ratioP2;P2;SDS_P1;SDS_P2;PMS_P1;PMS_P2;Temp;Humidity;BMP_temperature;BMP_pressure;BME280_temperature;BME280_humidity;BME280_pressure;Samples;Min_cycle;Max_cycle;Signal;HPM_P1;HPM_P2
2022/10/12 00:00:17;;;;;;;58.60;15.90;;;;;;;11.64;100.00;98564.63;5035378;28;20029;-58
2022/10/12 00:02:42;;;;;;;46.28;14.77;;;;;;;11.33;100.00;98565.72;5037447;28;20033;-58
2022/10/12 00:05:08;;;;;;;44.35;14.23;;;;;;;11.54;100.00;98558.91;5036067;28;20029;-58
2022/10/12 00:07:34;;;;;;;41.97;13.10;;;;;;;11.69;100.00;98567.94;5034624;28;20124;-56
2022/10/12 00:10:00;;;;;;;46.03;14.65;;;;;;;11.44;100.00;98567.13;5036403;28;20024;-59
2022/10/12 00:12:25;;;;;;;49.70;14.82;;;;;;;11.35;100.00;98550.84;5034814;28;20045;-58
2022/10/12 00:14:50;;;;;;;51.08;15.20;;;;;;;11.42;100.00;98553.25;5037263;28;20365;-57
2022/10/12 00:17:16;;;;;;;53.83;15.55;;;;;;;11.31;100.00;98561.47;5036004;28;20045;-57
2022/10/12 00:19:41;;;;;;;57.85;16.83;;;;;;;11.54;100.00;98558.03;5034584;28;20638;-57
2022/10/12 00:22:07;;;;;;;47.00;14.52;;;;;;;11.49;100.00;98560.81;5036675;28;20039;-57
2022/10/12 00:24:32;;;;;;;58.50;16.52;;;;;;;11.53;100.00;98561.56;5037330;28;20025;-57
2022/10/12 00:26:57;;;;;;;50.28;16.88;;;;;;;11.28;100.00;98556.34;5036190;28;20441;-56
2022/10/12 00:29:23;;;;;;;52.25;16.65;;;;;;;11.08;100.00;98555.28;5036207;28;20772;-56
2022/10/12 00:31:48;;;;;;;59.70;16.65;;;;;;;11.14;100.00;98549.00;5035521;28;20068;-59
2022/10/12 00:34:14;;;;;;;51.15;16.20;;;;;;;10.98;100.00;98554.72;5034071;28;20040;-56
2022/10/12 00:36:39;;;;;;;61.78;17.40;;;;;;;11.04;100.00;98552.81;5031547;28;20046;-54
2022/10/12 00:39:07;;;;;;;53.60;16.08;;;;;;;11.15;100.00;98550.69;5034267;28;20035;-54
2022/10/12 00:41:37;;;;;;;49.25;13.13;;;;;;;11.04;100.00;98555.44;5034718;28;20033;-55
2022/10/12 00:44:02;;;;;;;49.55;15.68;;;;;;;11.18;100.00;98556.66;5034730;28;20056;-56
2022/10/12 00:46:40;;;;;;;57.88;16.85;;;;;;;10.90;100.00;98556.75;5033978;28;20479;-54
2022/10/12 00:49:18;;;;;;;54.58;16.50;;;;;;;10.99;100.00;98556.44;5033420;28;20025;-54
2022/10/12 00:51:50;;;;;;;68.22;17.85;;;;;;;10.87;100.00;98551.63;5032093;28;20549;-54
2022/10/12 00:54:23;;;;;;;54.00;16.45;;;;;;;10.91;100.00;98548.00;5034741;28;20017;-56
2022/10/12 00:56:52;;;;;;;65.15;17.15;;;;;;;11.10;100.00;98547.38;5034699;28;20044;-54
2022/10/12 00:59:26;;;;;;;56.13;17.00;;;;;;;10.82;100.00;98543.09;5034644;28;20029;-54
2022/10/12 01:01:52;;;;;;;58.50;16.90;;;;;;;10.79;100.00;98545.84;5034927;28;20045;-54
2022/10/12 01:04:17;;;;;;;50.17;16.55;;;;;;;10.88;100.00;98542.91;5036074;28;20116;-54
2022/10/12 01:06:43;;;;;;;53.63;16.23;;;;;;;10.85;100.00;98548.22;5035584;28;20287;-55
2022/10/12 01:09:08;;;;;;;59.53;16.50;;;;;;;10.81;100.00;98546.63;5035061;28;20017;-54
2022/10/12 01:11:33;;;;;;;44.70;15.05;;;;;;;10.74;100.00;98545.13;5032412;28;20040;-55
2022/10/12 01:13:59;;;;;;;58.33;16.80;;;;;;;10.68;100.00;98534.88;5033090;28;20032;-54
2022/10/12 01:16:33;;;;;;;45.58;16.13;;;;;;;10.80;100.00;98537.09;5035218;28;20151;-54
2022/10/12 01:19:24;;;;;;;50.28;14.70;;;;;;;10.83;100.00;98543.97;5032665;28;20029;-53
2022/10/12 01:21:59;;;;;;;52.92;16.27;;;;;;;10.88;100.00;98537.69;5032437;28;20038;-54
2022/10/12 01:24:37;;;;;;;55.30;15.30;;;;;;;10.91;100.00;98542.78;5033929;28;20059;-54
2022/10/12 01:27:34;;;;;;;53.00;15.50;;;;;;;11.26;100.00;98548.56;5032831;28;20509;-54
2022/10/12 01:30:02;;;;;;;44.00;13.40;;;;;;;11.23;100.00;98546.06;5032355;28;20033;-55
2022/10/12 01:32:43;;;;;;;46.22;14.57;;;;;;;10.90;100.00;98541.09;5033980;28;21265;-56
2022/10/12 01:35:45;;;;;;;45.53;14.55;;;;;;;11.01;100.00;98543.34;5033924;28;20025;-57
2022/10/12 01:38:25;;;;;;;;;;;;;;;10.89;100.00;98544.59;5031810;28;20998;-54
2022/10/12 01:41:03;;;;;;;47.47;14.77;;;;;;;11.00;100.00;98542.47;5034022;28;19970;-55
2022/10/12 01:43:40;;;;;;;54.25;15.05;;;;;;;11.04;100.00;98543.22;5033769;28;20027;-54
2022/10/12 01:46:11;;;;;;;44.28;13.80;;;;;;;11.41;100.00;98546.31;5033325;28;20059;-54
2022/10/12 01:48:37;;;;;;;52.55;14.43;;;;;;;11.19;100.00;98537.50;5031559;28;20057;-54
2022/10/12 01:51:02;;;;;;;52.60;15.23;;;;;;;11.37;100.00;98541.19;5032355;28;20164;-55
2022/10/12 01:53:46;;;;;;;52.45;14.77;;;;;;;11.27;100.00;98542.44;5033858;28;20111;-55
2022/10/12 01:57:01;;;;;;;45.60;14.10;;;;;;;10.84;100.00;98546.50;5036073;28;20037;-54
2022/10/12 01:59:29;;;;;;;60.55;15.82;;;;;;;10.97;100.00;98537.38;5007933;28;20906;-54
2022/10/12 02:02:15;;;;;;;54.30;15.55;;;;;;;10.82;100.00;98534.44;5035981;28;20139;-57
2022/10/12 02:05:22;;;;;;;54.88;15.10;;;;;;;10.87;100.00;98535.97;5034925;28;20678;-57
2022/10/12 02:07:51;;;;;;;51.95;15.02;;;;;;;10.75;100.00;98531.16;5030798;28;20139;-58
2022/10/12 02:10:26;;;;;;;51.30;15.52;;;;;;;10.88;100.00;98532.47;5030649;28;20609;-60
2022/10/12 02:12:55;;;;;;;55.97;15.25;;;;;;;11.03;100.00;98535.44;5031599;28;20052;-57
2022/10/12 02:15:24;;;;;;;45.80;14.18;;;;;;;11.14;100.00;98528.13;5032069;28;20017;-59
2022/10/12 02:17:51;;;;;;;57.65;15.77;;;;;;;10.99;100.00;98529.47;5033940;28;20074;-57
2022/10/12 02:20:18;;;;;;;46.97;14.68;;;;;;;10.99;100.00;98535.56;5032547;28;20078;-59
2022/10/12 02:22:48;;;;;;;52.92;14.90;;;;;;;10.85;100.00;98532.56;5032213;28;20049;-58
2022/10/12 02:25:17;;;;;;;48.47;14.40;;;;;;;10.93;100.00;98529.69;5032538;28;20707;-57
2022/10/12 02:27:48;;;;;;;46.78;14.27;;;;;;;10.72;100.00;98526.91;5034498;28;20056;-56
2022/10/12 02:30:14;;;;;;;44.92;13.52;;;;;;;10.72;100.00;98526.91;5032094;28;20025;-57
2022/10/12 02:33:04;;;;;;;51.33;14.27;;;;;;;10.90;100.00;98525.44;5033859;28;20051;-59
2022/10/12 02:35:32;;;;;;;46.55;14.48;;;;;;;10.84;100.00;98523.03;5024860;28;20513;-58
2022/10/12 02:38:06;;;;;;;76.70;16.65;;;;;;;10.85;100.00;98519.53;5032554;28;20040;-56
2022/10/12 02:40:53;;;;;;;44.00;13.75;;;;;;;10.96;100.00;98513.94;5033092;28;20064;-57
2022/10/12 02:43:28;;;;;;;52.70;14.88;;;;;;;10.65;100.00;98511.50;5033469;28;20517;-57
2022/10/12 02:45:57;;;;;;;48.97;15.70;;;;;;;10.59;100.00;98505.59;5029390;28;20115;-56
2022/10/12 02:48:24;;;;;;;53.50;15.27;;;;;;;10.72;100.00;98502.59;5034301;28;20017;-53
2022/10/12 02:50:54;;;;;;;52.97;14.45;;;;;;;10.65;100.00;98499.31;5032637;28;20132;-54
2022/10/12 02:53:20;;;;;;;57.60;14.95;;;;;;;10.87;100.00;98506.44;5033624;28;20026;-54
2022/10/12 02:55:55;;;;;;;47.13;13.13;;;;;;;10.94;100.00;98498.31;5031652;28;20633;-54
2022/10/12 02:58:21;;;;;;;50.20;13.60;;;;;;;11.02;100.00;98499.81;5032875;28;20033;-54
2022/10/12 03:00:46;;;;;;;48.95;13.73;;;;;;;11.06;100.00;98509.25;5031385;28;20056;-54
2022/10/12 03:03:11;;;;;;;57.17;14.63;;;;;;;11.05;100.00;98502.34;5031696;28;20029;-54
2022/10/12 03:05:37;;;;;;;36.22;11.15;;;;;;;11.00;100.00;98500.72;5033364;28;20168;-54
2022/10/12 03:08:03;;;;;;;46.17;12.65;;;;;;;10.99;100.00;98504.25;5031934;28;20026;-54
2022/10/12 03:10:28;;;;;;;46.30;11.55;;;;;;;11.02;100.00;98507.66;5033151;28;20029;-54
2022/10/12 03:12:54;;;;;;;44.47;12.80;;;;;;;11.05;100.00;98510.16;5032765;28;20502;-54
2022/10/12 03:15:19;;;;;;;55.47;15.50;;;;;;;10.91;100.00;98516.69;5030797;28;20025;-55
2022/10/12 03:17:44;;;;;;;44.50;12.70;;;;;;;10.85;100.00;98511.69;5031643;28;20036;-54
2022/10/12 03:20:10;;;;;;;47.90;13.70;;;;;;;10.67;100.00;98513.16;5031449;28;20140;-53
2022/10/12 03:22:36;;;;;;;52.15;13.48;;;;;;;11.02;100.00;98512.88;5032683;28;20108;-54
2022/10/12 03:25:01;;;;;;;44.95;14.40;;;;;;;10.61;100.00;98519.44;5032947;28;20724;-57
2022/10/12 03:27:26;;;;;;;58.58;15.63;;;;;;;10.47;100.00;98521.63;5032857;28;20132;-55
2022/10/12 03:29:52;;;;;;;49.95;14.77;;;;;;;10.36;100.00;98515.91;5033856;28;20127;-53
2022/10/12 03:32:18;;;;;;;55.38;15.40;;;;;;;10.34;100.00;98515.09;5032408;28;20108;-54
2022/10/12 03:34:43;;;;;;;60.45;15.32;;;;;;;10.43;100.00;98514.81;5039730;28;20578;-55
2022/10/12 03:37:09;;;;;;;51.50;15.18;;;;;;;10.59;100.00;98515.19;5036859;28;20558;-55
2022/10/12 03:39:34;;;;;;;66.55;13.88;;;;;;;10.59;100.00;98516.03;5035702;28;20025;-54
2022/10/12 03:42:00;;;;;;;45.20;13.95;;;;;;;10.50;100.00;98505.88;5034103;28;20041;-54
2022/10/12 03:44:25;;;;;;;51.45;15.40;;;;;;;10.20;100.00;98503.34;5036249;28;20029;-55
2022/10/12 03:46:50;;;;;;;57.40;15.43;;;;;;;10.25;100.00;98494.50;5037421;28;20559;-54
2022/10/12 03:49:16;;;;;;;52.90;15.65;;;;;;;10.36;100.00;98502.88;5034302;28;20026;-54
2022/10/12 03:51:41;;;;;;;70.47;16.88;;;;;;;10.30;100.00;98505.66;5035131;28;20064;-56
2022/10/12 03:54:06;;;;;;;55.33;16.73;;;;;;;10.40;100.00;98505.34;5036868;28;20032;-60
2022/10/12 03:56:32;;;;;;;53.58;15.95;;;;;;;10.30;100.00;98508.25;5033621;28;20042;-59
2022/10/12 03:58:57;;;;;;;58.88;15.70;;;;;;;10.15;100.00;98504.38;5035997;28;20123;-57
2022/10/12 04:01:22;;;;;;;57.40;16.15;;;;;;;10.16;100.00;98506.94;5034216;28;20049;-57
2022/10/12 04:03:48;;;;;;;68.43;17.90;;;;;;;10.02;100.00;98509.97;5036947;28;20021;-58
2022/10/12 04:06:13;;;;;;;59.15;15.55;;;;;;;10.03;100.00;98505.59;5033198;28;20033;-57
2022/10/12 04:08:38;;;;;;;49.63;14.60;;;;;;;10.12;100.00;98510.53;5034323;28;20048;-56
2022/10/12 04:11:04;;;;;;;67.43;16.63;;;;;;;10.14;100.00;98508.72;5033637;28;20025;-57
2022/10/12 04:13:29;;;;;;;55.50;15.75;;;;;;;10.04;100.00;98515.13;5036527;28;20127;-57
2022/10/12 04:15:59;;;;;;;43.47;11.15;;;;;;;10.09;100.00;98505.44;5035558;28;20040;-56
2022/10/12 04:18:25;;;;;;;41.60;11.00;;;;;;;10.32;100.00;98511.69;5034608;28;20037;-57
2022/10/12 04:20:50;;;;;;;53.90;14.70;;;;;;;10.06;100.00;98509.88;5031933;28;20039;-57
2022/10/12 04:23:15;;;;;;;53.80;16.23;;;;;;;10.01;100.00;98512.63;5035721;28;20097;-57
2022/10/12 04:25:41;;;;;;;59.05;16.52;;;;;;;9.81;100.00;98506.28;5035594;28;20075;-57
2022/10/12 04:28:06;;;;;;;66.72;17.55;;;;;;;9.81;100.00;98508.88;5033197;28;20071;-57
2022/10/12 04:30:32;;;;;;;41.22;13.90;;;;;;;9.90;100.00;98517.31;5033549;28;20086;-54
2022/10/12 04:32:57;;;;;;;36.95;10.13;;;;;;;10.23;100.00;98505.81;5032585;28;20028;-54
2022/10/12 04:35:23;;;;;;;45.20;11.13;;;;;;;10.41;100.00;98511.41;5035566;28;20033;-54
2022/10/12 04:37:48;;;;;;;46.05;12.60;;;;;;;10.49;100.00;98501.56;5035203;28;20025;-57
2022/10/12 04:40:14;;;;;;;56.03;15.38;;;;;;;9.95;100.00;98523.22;5031614;28;20094;-55
2022/10/12 04:42:39;;;;;;;54.30;15.60;;;;;;;9.83;100.00;98517.50;5031690;28;20025;-54
2022/10/12 04:45:05;;;;;;;54.70;16.23;;;;;;;9.77;100.00;98520.25;5033947;28;20525;-55
2022/10/12 04:47:33;;;;;;;50.20;14.40;;;;;;;9.63;100.00;98518.06;5033603;28;20514;-55
2022/10/12 04:49:58;;;;;;;47.45;14.75;;;;;;;9.68;100.00;98522.28;5033362;28;20561;-56
2022/10/12 04:52:24;;;;;;;70.30;17.75;;;;;;;9.63;100.00;98527.63;5033181;28;20045;-54
2022/10/12 04:54:49;;;;;;;69.55;17.00;;;;;;;9.56;100.00;98528.72;5033388;28;20096;-54
2022/10/12 04:57:14;;;;;;;58.13;14.57;;;;;;;9.64;100.00;98524.13;5034101;28;20079;-55
2022/10/12 04:59:40;;;;;;;72.93;17.27;;;;;;;9.53;100.00;98523.59;5034591;28;20033;-55
2022/10/12 05:02:05;;;;;;;53.30;16.08;;;;;;;9.41;100.00;98523.03;5035406;28;20041;-57
2022/10/12 05:04:30;;;;;;;65.05;17.13;;;;;;;9.37;100.00;98526.59;5037206;28;20112;-57
2022/10/12 05:06:56;;;;;;;67.30;17.23;;;;;;;9.37;100.00;98524.00;5034331;28;20044;-56
2022/10/12 05:09:21;;;;;;;54.75;15.70;;;;;;;9.30;100.00;98519.88;5033697;28;20747;-57
2022/10/12 05:11:46;;;;;;;60.92;17.30;;;;;;;9.41;100.00;98527.38;5033476;28;20053;-58
2022/10/12 05:14:12;;;;;;;60.58;16.50;;;;;;;9.36;100.00;98529.28;5034705;28;20094;-57
2022/10/12 05:16:37;;;;;;;62.45;17.02;;;;;;;9.39;100.00;98524.84;5033368;28;20095;-56
2022/10/12 05:19:02;;;;;;;60.28;17.08;;;;;;;9.47;100.00;98526.38;5035633;28;20078;-58
2022/10/12 05:21:28;;;;;;;59.53;17.65;;;;;;;9.47;100.00;98531.59;5033867;28;20040;-57
2022/10/12 05:23:53;;;;;;;62.10;17.38;;;;;;;9.47;100.00;98532.44;5032988;28;20021;-56
2022/10/12 05:26:19;;;;;;;49.15;15.07;;;;;;;9.62;100.00;98523.31;5032290;28;20095;-56
2022/10/12 05:28:44;;;;;;;57.63;15.35;;;;;;;9.52;100.00;98524.47;5034089;28;20028;-56
2022/10/12 05:31:10;;;;;;;56.97;15.50;;;;;;;9.71;100.00;98528.25;5033149;28;20024;-56
2022/10/12 05:33:35;;;;;;;47.80;15.32;;;;;;;9.82;100.00;98528.81;5033715;28;20029;-58
2022/10/12 05:36:00;;;;;;;53.85;15.40;;;;;;;9.58;100.00;98527.75;5032920;28;20033;-58
2022/10/12 05:38:25;;;;;;;54.80;15.73;;;;;;;9.44;100.00;98535.09;5036520;28;20033;-57
2022/10/12 05:40:51;;;;;;;69.50;18.65;;;;;;;9.84;100.00;98527.00;5033554;28;20115;-55
2022/10/12 05:43:19;;;;;;;63.70;18.48;;;;;;;9.96;100.00;98530.13;5033917;28;20036;-56
2022/10/12 05:45:44;;;;;;;52.42;14.95;;;;;;;9.64;100.00;98529.34;5032190;28;20144;-59
2022/10/12 05:48:09;;;;;;;55.80;15.40;;;;;;;9.41;100.00;98528.25;5032867;28;20738;-56
2022/10/12 05:50:35;;;;;;;52.80;14.23;;;;;;;9.33;100.00;98529.34;5032332;28;20043;-59
2022/10/12 05:53:00;;;;;;;66.95;16.45;;;;;;;10.03;100.00;98527.31;5033330;28;20035;-57
2022/10/12 05:55:25;;;;;;;51.75;15.75;;;;;;;10.25;100.00;98528.41;5032881;28;20028;-57
2022/10/12 05:57:51;;;;;;;49.53;15.00;;;;;;;10.38;100.00;98532.34;5030909;28;20250;-56
2022/10/12 06:00:16;;;;;;;65.72;15.80;;;;;;;10.37;100.00;98541.09;5031050;28;20029;-61
2022/10/12 06:02:42;;;;;;;50.95;13.90;;;;;;;10.10;100.00;98543.59;5032538;28;20128;-59
2022/10/12 06:05:07;;;;;;;60.25;16.50;;;;;;;10.38;100.00;98534.97;5034547;28;20035;-58
2022/10/12 06:07:33;;;;;;;55.38;15.48;;;;;;;10.59;100.00;98542.09;5034920;28;20017;-59
2022/10/12 06:09:59;;;;;;;51.75;14.73;;;;;;;10.71;100.00;98546.06;5033840;28;20557;-58
2022/10/12 06:12:25;;;;;;;52.80;15.25;;;;;;;10.67;100.00;98554.06;5029260;28;20202;-59
2022/10/12 06:14:51;;;;;;;46.17;13.73;;;;;;;10.59;100.00;98546.47;5032656;28;20478;-57
2022/10/12 06:17:16;;;;;;;54.30;15.38;;;;;;;10.32;100.00;98550.81;5032955;28;20045;-57
2022/10/12 06:19:41;;;;;;;58.97;15.05;;;;;;;10.89;100.00;98542.00;5032437;28;20078;-57
2022/10/12 06:22:07;;;;;;;42.38;13.63;;;;;;;10.63;100.00;98547.25;5033343;28;20124;-56
2022/10/12 06:24:32;;;;;;;46.83;14.40;;;;;;;10.88;100.00;98553.34;5032189;28;20029;-56
2022/10/12 06:26:57;;;;;;;41.05;13.45;;;;;;;10.80;100.00;98560.56;5030951;28;20048;-56
2022/10/12 06:29:23;;;;;;;43.25;13.27;;;;;;;11.04;100.00;98558.03;5032777;28;20322;-57
2022/10/12 06:31:50;;;;;;;45.53;14.23;;;;;;;11.14;100.00;98559.44;5032905;28;20132;-58
2022/10/12 06:34:15;;;;;;;41.20;13.85;;;;;;;11.46;100.00;98565.31;5035901;28;20094;-59
2022/10/12 06:36:41;;;;;;;50.40;14.32;;;;;;;11.00;100.00;98565.97;5032952;28;20045;-59
2022/10/12 06:39:07;;;;;;;38.75;14.02;;;;;;;11.14;100.00;98562.91;5035373;28;20761;-57
2022/10/12 06:41:32;;;;;;;38.97;13.00;;;;;;;10.55;100.00;98574.41;5030304;28;20041;-57
2022/10/12 06:43:58;;;;;;;39.40;13.25;;;;;;;11.12;100.00;98567.34;5032867;28;20051;-57
2022/10/12 06:46:23;;;;;;;32.50;11.98;;;;;;;10.98;100.00;98575.63;5033127;28;20644;-58
2022/10/12 06:48:48;;;;;;;52.75;13.90;;;;;;;11.13;100.00;98573.41;5032498;28;20389;-57
2022/10/12 06:51:14;;;;;;;43.28;12.35;;;;;;;11.42;100.00;98568.94;5030061;28;20044;-59
2022/10/12 06:53:39;;;;;;;45.67;13.05;;;;;;;11.43;100.00;98574.06;5030920;28;20037;-57
2022/10/12 06:56:06;;;;;;;33.58;11.55;;;;;;;11.48;100.00;98577.38;5029422;28;20075;-58
2022/10/12 06:58:31;;;;;;;33.20;12.45;;;;;;;11.24;100.00;98580.88;5032092;28;20108;-59
2022/10/12 07:00:57;;;;;;;44.42;13.23;;;;;;;11.08;100.00;98577.91;5031551;28;20490;-59
2022/10/12 07:03:22;;;;;;;38.92;12.43;;;;;;;11.51;100.00;98586.91;5029991;28;20071;-59
2022/10/12 07:05:47;;;;;;;40.92;11.68;;;;;;;11.60;100.00;98583.94;5032575;28;20124;-58
2022/10/12 07:08:13;;;;;;;38.10;11.63;;;;;;;11.69;100.00;98587.97;5033010;28;20017;-57
2022/10/12 07:10:38;;;;;;;40.40;10.75;;;;;;;11.82;100.00;98593.59;5030272;28;20141;-57
2022/10/12 07:13:04;;;;;;;39.95;11.80;;;;;;;12.03;100.00;98603.31;5031425;28;20072;-59
2022/10/12 07:15:29;;;;;;;38.95;11.27;;;;;;;12.30;100.00;98600.59;5031460;28;20124;-58
2022/10/12 07:17:54;;;;;;;36.17;11.27;;;;;;;11.95;100.00;98605.38;5031195;28;20033;-58
2022/10/12 07:20:20;;;;;;;41.35;11.40;;;;;;;11.91;100.00;98611.59;5029926;28;20128;-56
2022/10/12 07:22:46;;;;;;;32.08;11.35;;;;;;;12.59;100.00;98611.66;5031732;28;20140;-57
2022/10/12 07:25:11;;;;;;;38.40;11.10;;;;;;;12.36;100.00;98616.03;5031780;28;20091;-57
2022/10/12 07:27:36;;;;;;;34.58;11.00;;;;;;;12.86;100.00;98618.41;5031764;28;20052;-56
2022/10/12 07:30:03;;;;;;;32.17;10.48;;;;;;;12.96;100.00;98623.28;5032051;28;20025;-57
2022/10/12 07:32:28;;;;;;;28.67;10.10;;;;;;;12.49;100.00;98617.25;5032200;28;20053;-61
2022/10/12 07:34:54;;;;;;;36.78;10.38;;;;;;;13.59;100.00;98625.94;5032884;28;20033;-60
2022/10/12 07:37:19;;;;;;;39.75;10.85;;;;;;;12.98;100.00;98627.56;5030636;28;20049;-59
2022/10/12 07:39:44;;;;;;;35.13;10.38;;;;;;;13.52;100.00;98635.81;5031695;28;20052;-60
2022/10/12 07:42:10;;;;;;;33.17;10.15;;;;;;;14.71;100.00;98644.47;5031854;28;20646;-58
2022/10/12 07:44:35;;;;;;;34.85;10.10;;;;;;;14.50;100.00;98655.94;5031058;28;20090;-59
2022/10/12 07:47:00;;;;;;;32.67;10.40;;;;;;;14.33;100.00;98657.56;5031033;28;20491;-59
2022/10/12 07:49:26;;;;;;;47.63;11.27;;;;;;;14.36;100.00;98660.06;5030132;28;20573;-58
2022/10/12 07:51:51;;;;;;;35.72;10.60;;;;;;;14.61;100.00;98649.31;5030528;28;20099;-59
2022/10/12 07:54:17;;;;;;;29.67;9.52;;;;;;;14.31;100.00;98667.28;5031299;28;20460;-57
2022/10/12 07:56:42;;;;;;;32.45;9.98;;;;;;;13.44;100.00;98658.88;5031883;28;20044;-57
2022/10/12 07:59:08;;;;;;;28.13;9.50;;;;;;;14.69;100.00;98656.84;5032955;28;20029;-58
2022/10/12 08:01:34;;;;;;;34.25;10.38;;;;;;;15.43;100.00;98658.50;5029914;28;20064;-59
2022/10/12 08:04:00;;;;;;;28.08;9.23;;;;;;;17.18;100.00;98663.25;5032607;28;20134;-60
2022/10/12 08:06:28;;;;;;;27.80;9.18;;;;;;;16.66;100.00;98667.84;5031090;28;20041;-59
2022/10/12 08:08:54;;;;;;;27.42;8.80;;;;;;;16.15;100.00;98654.78;5032166;28;20100;-57
2022/10/12 08:11:20;;;;;;;28.25;9.15;;;;;;;15.57;100.00;98653.38;5029602;28;20034;-57
2022/10/12 08:13:46;;;;;;;33.00;9.80;;;;;;;16.99;100.00;98653.75;5031953;28;20014;-57
2022/10/12 08:16:18;;;;;;;26.27;8.35;;;;;;;18.69;100.00;98660.28;5032595;28;20033;-56
2022/10/12 08:18:44;;;;;;;25.90;8.27;;;;;;;21.33;100.00;98666.91;5035059;28;20502;-58
2022/10/12 08:21:12;;;;;;;31.52;8.80;;;;;;;21.08;100.00;98659.91;5032968;28;20037;-56
2022/10/12 08:23:37;;;;;;;22.90;8.18;;;;;;;20.63;100.00;98657.88;5035560;28;20025;-57
2022/10/12 08:26:04;;;;;;;24.58;7.93;;;;;;;22.02;100.00;98663.50;5036376;28;20125;-57
2022/10/12 08:28:29;;;;;;;24.55;8.63;;;;;;;23.19;100.00;98668.38;5036115;28;20028;-56
2022/10/12 08:30:55;;;;;;;25.05;8.57;;;;;;;23.35;95.14;98656.47;5029371;28;20033;-59
2022/10/12 08:33:20;;;;;;;24.00;8.30;;;;;;;22.76;96.96;98657.72;5035771;28;20040;-56
2022/10/12 08:35:46;;;;;;;25.08;8.35;;;;;;;22.10;100.00;98661.94;5034917;28;20041;-56
2022/10/12 08:38:13;;;;;;;24.38;8.50;;;;;;;20.95;100.00;98652.88;5036691;28;20021;-57
2022/10/12 08:40:57;;;;;;;21.77;8.18;;;;;;;19.10;100.00;98642.72;5030071;28;20239;-59
2022/10/12 08:43:49;;;;;;;20.58;8.27;;;;;;;22.15;100.00;98648.31;5034170;28;20033;-56
2022/10/12 08:46:22;;;;;;;23.58;7.70;;;;;;;22.71;91.41;98658.06;5033254;28;20037;-57
2022/10/12 08:49:10;;;;;;;20.05;6.75;;;;;;;23.59;100.00;98649.06;5034598;28;20037;-56
2022/10/12 08:51:45;;;;;;;21.77;7.45;;;;;;;22.78;92.79;98647.78;5032702;28;20075;-57
2022/10/12 08:54:13;;;;;;;27.08;7.88;;;;;;;21.17;100.00;98643.31;5033997;28;20021;-57
2022/10/12 08:56:40;;;;;;;21.02;7.47;;;;;;;22.82;94.32;98650.06;5033813;28;20046;-57
2022/10/12 08:59:11;;;;;;;22.77;8.70;;;;;;;22.49;89.32;98643.00;5034832;28;20394;-56
2022/10/12 09:01:58;;;;;;;21.00;7.55;;;;;;;25.29;83.37;98647.63;5032502;28;20029;-59
2022/10/12 09:04:35;;;;;;;23.92;8.32;;;;;;;21.93;86.58;98643.81;5037053;28;20025;-58
2022/10/12 09:07:11;;;;;;;17.75;7.22;;;;;;;23.65;86.89;98653.91;5035220;28;20036;-57
2022/10/12 09:09:51;;;;;;;22.65;8.38;;;;;;;23.78;77.78;98651.00;5032703;28;20036;-58
2022/10/12 09:12:23;;;;;;;20.48;7.65;;;;;;;22.91;76.97;98646.66;5033753;28;20044;-57
2022/10/12 09:14:51;;;;;;;19.00;7.72;;;;;;;23.70;81.20;98650.00;5033401;28;20037;-59
2022/10/12 09:17:30;;;;;;;18.02;7.00;;;;;;;24.01;70.06;98641.09;5021625;28;21012;-58
2022/10/12 09:20:06;;;;;;;22.40;7.22;;;;;;;24.50;81.24;98643.09;5031905;28;20039;-57
2022/10/12 09:22:33;;;;;;;21.02;7.85;;;;;;;22.83;82.55;98646.44;5034136;28;20047;-57
2022/10/12 09:25:01;;;;;;;16.95;7.25;;;;;;;21.65;89.49;98637.13;5034151;28;20151;-60
2022/10/12 09:27:30;;;;;;;20.30;6.97;;;;;;;22.55;100.00;98639.00;5034471;28;20049;-62
2022/10/12 09:30:00;;;;;;;21.52;7.03;;;;;;;22.48;94.51;98639.50;5035992;28;20053;-58
2022/10/12 09:32:56;;;;;;;19.83;6.95;;;;;;;24.60;88.29;98644.00;5034153;28;20224;-58
2022/10/12 09:35:22;;;;;;;18.77;6.88;;;;;;;25.64;69.58;98647.06;5035072;28;20299;-59
2022/10/12 09:37:51;;;;;;;18.23;6.90;;;;;;;24.93;77.20;98641.97;5034355;28;20604;-58
2022/10/12 09:40:23;;;;;;;24.60;7.55;;;;;;;24.01;76.43;98643.75;5034444;28;20055;-58
2022/10/12 09:42:51;;;;;;;24.35;7.72;;;;;;;21.77;97.07;98635.34;5033038;28;20036;-60
2022/10/12 09:45:18;;;;;;;21.58;7.63;;;;;;;21.97;94.36;98639.13;5032042;28;20033;-58
2022/10/12 09:48:10;;;;;;;24.63;7.97;;;;;;;23.63;92.36;98647.00;5033461;28;20584;-59
2022/10/12 09:50:44;;;;;;;20.60;7.73;;;;;;;24.21;88.83;98641.19;5032135;28;20064;-60
2022/10/12 09:53:32;;;;;;;17.42;8.23;;;;;;;21.37;100.00;98629.41;5030507;28;20024;-61
2022/10/12 09:56:11;;;;;;;21.27;8.20;;;;;;;22.91;89.73;98638.66;5033593;28;20036;-58
2022/10/12 09:59:05;;;;;;;20.55;8.75;;;;;;;23.59;93.91;98635.75;5035179;28;20021;-61
2022/10/12 10:01:35;;;;;;;21.52;8.20;;;;;;;22.78;100.00;98630.00;5030712;28;20037;-59
2022/10/12 10:04:12;;;;;;;22.08;9.55;;;;;;;21.79;100.00;98628.09;5033961;28;20055;-60
2022/10/12 10:06:40;;;;;;;24.98;9.18;;;;;;;23.28;99.59;98633.00;5034529;28;20045;-59
2022/10/12 10:09:30;;;;;;;19.50;7.63;;;;;;;21.63;100.00;98623.13;5034199;28;20056;-59
2022/10/12 10:12:09;;;;;;;27.27;9.85;;;;;;;19.84;100.00;98613.03;5032666;28;20033;-59
2022/10/12 10:14:35;;;;;;;29.48;8.15;;;;;;;20.79;100.00;98616.03;5035228;28;20097;-58
2022/10/12 10:17:00;;;;;;;24.73;10.43;;;;;;;20.98;100.00;98612.88;5032299;28;20072;-57
2022/10/12 10:19:26;;;;;;;28.75;10.65;;;;;;;20.66;100.00;98614.38;5032393;28;20064;-58
2022/10/12 10:21:53;;;;;;;27.60;9.20;;;;;;;25.15;97.52;98631.03;5033344;28;20035;-58
2022/10/12 10:24:28;;;;;;;23.80;9.52;;;;;;;24.35;92.26;98627.47;5033457;28;20013;-58
2022/10/12 10:27:02;;;;;;;23.50;9.50;;;;;;;24.61;85.86;98624.34;5029847;28;20060;-57
2022/10/12 10:29:30;;;;;;;24.38;9.60;;;;;;;22.86;100.00;98619.56;5032689;28;20752;-59
2022/10/12 10:32:14;;;;;;;20.67;8.88;;;;;;;22.59;99.96;98621.81;5032028;28;20080;-58
2022/10/12 10:34:41;;;;;;;20.08;8.70;;;;;;;23.05;88.62;98615.47;5035876;28;20052;-58
2022/10/12 10:37:13;;;;;;;20.88;8.82;;;;;;;22.85;100.00;98614.41;5034556;28;20801;-60
2022/10/12 10:39:48;;;;;;;28.60;9.60;;;;;;;21.65;100.00;98610.56;5034573;28;20645;-58
2022/10/12 10:42:28;;;;;;;23.63;8.82;;;;;;;20.86;100.00;98600.53;5032566;28;20033;-58
2022/10/12 10:45:21;;;;;;;21.13;8.57;;;;;;;20.97;100.00;98607.66;5034204;28;20390;-58
2022/10/12 10:47:46;;;;;;;25.23;9.25;;;;;;;21.60;100.00;98610.94;5033560;28;20107;-59
2022/10/12 10:50:29;;;;;;;22.48;9.10;;;;;;;21.77;100.00;98606.13;5032364;28;20036;-58
2022/10/12 10:53:01;;;;;;;23.60;9.60;;;;;;;21.08;100.00;98613.03;5032252;28;20030;-58
2022/10/12 10:55:32;;;;;;;28.55;9.70;;;;;;;20.11;100.00;98609.41;5032804;28;20048;-57
2022/10/12 10:58:02;;;;;;;29.37;9.33;;;;;;;20.13;100.00;98607.50;5032573;28;20029;-59
2022/10/12 11:00:30;;;;;;;24.63;9.77;;;;;;;19.71;100.00;98604.22;5033685;28;20048;-59
2022/10/12 11:03:01;;;;;;;25.48;8.73;;;;;;;20.18;100.00;98602.72;5032124;28;20090;-60
2022/10/12 11:05:28;;;;;;;28.77;9.52;;;;;;;19.15;100.00;98598.31;5033068;28;20021;-61
2022/10/12 11:07:56;;;;;;;25.98;9.35;;;;;;;19.44;100.00;98596.34;5034422;28;20074;-59
2022/10/12 11:10:30;;;;;;;31.83;9.38;;;;;;;20.12;100.00;98602.31;5029312;28;20014;-60
2022/10/12 11:13:18;;;;;;;28.92;9.57;;;;;;;21.31;100.00;98592.72;5032143;28;20116;-57
2022/10/12 11:15:52;;;;;;;36.55;10.43;;;;;;;21.52;100.00;98602.69;5032513;28;20095;-61
2022/10/12 11:18:28;;;;;;;25.55;8.35;;;;;;;22.69;100.00;98609.50;5032084;28;20487;-58
2022/10/12 11:21:03;;;;;;;32.33;9.05;;;;;;;23.85;100.00;98598.09;5031801;28;20095;-61
2022/10/12 11:23:44;;;;;;;29.60;9.45;;;;;;;21.51;100.00;98595.72;5030588;28;20694;-59